sensor_id;sensor_type;location;lat;lon;timestamp;P1;durP1;ratioP1;P2;durP2;ratioP2
10465;SDS011;5280;42.600;23.556;2024-03-06T00:00:22;12.10;;;8.10;;
10465;SDS011;5280;42.600;23.556;2024-03-06T00:02:49;13.17;;;9.17;;
10465;SDS011;5280;42.600;23.556;2024-03-06T00:05:16;12.70;;;9.17;;
10465;SDS011;5280;42.600;23.556;2024-03-06T00:07:43;12.53;;;8.53;;
10465;SDS011;5280;42.600;23.556;2024-03-06T00:10:10;12.23;;;9.17;;
10465;SDS011;5280;42.600;23.556;2024-03-06T00:12:37;13.80;;;8.97;;
10465;SDS011;5280;42.600;23.556;2024-03-06T00:15:08;13.10;;;8.70;;
10465;SDS011;5280;42.600;23.556;2024-03-06T00:17:36;16.67;;;10.90;;
10465;SDS011;5280;42.600;23.556;2024-03-06T00:20:03;19.40;;;13.63;;
10465;SDS011;5280;42.600;23.556;2024-03-06T00:22:31;25.23;;;14.73;;
10465;SDS011;5280;42.600;23.556;2024-03-06T00:24:58;21.97;;;16.23;;
10465;SDS011;5280;42.600;23.556;2024-03-06T00:27:25;25.07;;;16.53;;
10465;SDS011;5280;42.600;23.556;2024-03-06T00:29:55;24.33;;;16.77;;
10465;SDS011;5280;42.600;23.556;2024-03-06T00:32:22;28.93;;;18.07;;
10465;SDS011;5280;42.600;23.556;2024-03-06T00:34:51;23.90;;;16.97;;
10465;SDS011;5280;42.600;23.556;2024-03-06T00:37:18;24.93;;;16.83;;
10465;SDS011;5280;42.600;23.556;2024-03-06T00:39:44;24.83;;;16.80;;
10465;SDS011;5280;42.600;23.556;2024-03-06T00:42:11;25.47;;;16.57;;
10465;SDS011;5280;42.600;23.556;2024-03-06T00:44:39;24.43;;;16.60;;
10465;SDS011;5280;42.600;23.556;2024-03-06T00:47:05;22.67;;;16.70;;
10465;SDS011;5280;42.600;23.556;2024-03-06T00:49:35;24.00;;;15.87;;
10465;SDS011;5280;42.600;23.556;2024-03-06T00:52:04;22.73;;;16.37;;
10465;SDS011;5280;42.600;23.556;2024-03-06T00:54:33;20.27;;;14.00;;
10465;SDS011;5280;42.600;23.556;2024-03-06T00:57:00;22.50;;;14.80;;
10465;SDS011;5280;42.600;23.556;2024-03-06T00:59:29;23.70;;;15.03;;
10465;SDS011;5280;42.600;23.556;2024-03-06T01:01:57;17.40;;;13.30;;
10465;SDS011;5280;42.600;23.556;2024-03-06T01:04:25;19.53;;;14.20;;
10465;SDS011;5280;42.600;23.556;2024-03-06T01:06:52;20.43;;;13.63;;
10465;SDS011;5280;42.600;23.556;2024-03-06T01:09:20;17.60;;;13.10;;
10465;SDS011;5280;42.600;23.556;2024-03-06T01:11:48;19.77;;;14.03;;
10465;SDS011;5280;42.600;23.556;2024-03-06T01:14:15;21.40;;;13.00;;
10465;SDS011;5280;42.600;23.556;2024-03-06T01:16:42;17.03;;;12.60;;
10465;SDS011;5280;42.600;23.556;2024-03-06T01:19:09;15.90;;;11.90;;
10465;SDS011;5280;42.600;23.556;2024-03-06T01:21:37;17.50;;;12.33;;
10465;SDS011;5280;42.600;23.556;2024-03-06T01:24:05;19.67;;;13.33;;
10465;SDS011;5280;42.600;23.556;2024-03-06T01:26:33;17.53;;;12.33;;
10465;SDS011;5280;42.600;23.556;2024-03-06T01:29:00;18.80;;;12.57;;
10465;SDS011;5280;42.600;23.556;2024-03-06T01:31:27;17.13;;;12.90;;
10465;SDS011;5280;42.600;23.556;2024-03-06T01:33:54;15.30;;;12.07;;
10465;SDS011;5280;42.600;23.556;2024-03-06T01:36:21;16.27;;;12.47;;
10465;SDS011;5280;42.600;23.556;2024-03-06T01:38:48;18.57;;;12.10;;
10465;SDS011;5280;42.600;23.556;2024-03-06T01:41:15;16.00;;;11.90;;
10465;SDS011;5280;42.600;23.556;2024-03-06T01:43:43;15.10;;;10.40;;
10465;SDS011;5280;42.600;23.556;2024-03-06T01:46:12;14.20;;;10.83;;
10465;SDS011;5280;42.600;23.556;2024-03-06T01:48:39;18.47;;;11.20;;
10465;SDS011;5280;42.600;23.556;2024-03-06T01:51:08;14.97;;;11.40;;
10465;SDS011;5280;42.600;23.556;2024-03-06T01:53:35;14.93;;;10.63;;
10465;SDS011;5280;42.600;23.556;2024-03-06T01:56:03;15.90;;;11.30;;
10465;SDS011;5280;42.600;23.556;2024-03-06T01:58:31;16.80;;;10.63;;
10465;SDS011;5280;42.600;23.556;2024-03-06T02:01:01;15.17;;;11.40;;
10465;SDS011;5280;42.600;23.556;2024-03-06T02:03:31;15.63;;;11.20;;
10465;SDS011;5280;42.600;23.556;2024-03-06T02:05:59;16.67;;;12.17;;
10465;SDS011;5280;42.600;23.556;2024-03-06T02:08:28;17.83;;;11.20;;
10465;SDS011;5280;42.600;23.556;2024-03-06T02:10:56;18.30;;;12.60;;
10465;SDS011;5280;42.600;23.556;2024-03-06T02:13:25;15.43;;;11.33;;
10465;SDS011;5280;42.600;23.556;2024-03-06T02:15:54;16.93;;;11.60;;
10465;SDS011;5280;42.600;23.556;2024-03-06T02:18:23;16.20;;;11.40;;
10465;SDS011;5280;42.600;23.556;2024-03-06T02:20:51;14.80;;;10.93;;
10465;SDS011;5280;42.600;23.556;2024-03-06T02:23:18;17.30;;;12.03;;
10465;SDS011;5280;42.600;23.556;2024-03-06T02:25:47;17.60;;;12.53;;
10465;SDS011;5280;42.600;23.556;2024-03-06T02:28:15;17.63;;;11.53;;
10465;SDS011;5280;42.600;23.556;2024-03-06T02:30:43;18.50;;;11.33;;
10465;SDS011;5280;42.600;23.556;2024-03-06T02:33:10;14.60;;;10.07;;
10465;SDS011;5280;42.600;23.556;2024-03-06T02:35:37;16.97;;;10.27;;
10465;SDS011;5280;42.600;23.556;2024-03-06T02:38:06;10.03;;;8.00;;
10465;SDS011;5280;42.600;23.556;2024-03-06T02:40:34;12.27;;;8.37;;
10465;SDS011;5280;42.600;23.556;2024-03-06T02:43:01;9.30;;;7.83;;
10465;SDS011;5280;42.600;23.556;2024-03-06T02:45:30;10.57;;;7.43;;
10465;SDS011;5280;42.600;23.556;2024-03-06T02:47:57;11.13;;;8.50;;
10465;SDS011;5280;42.600;23.556;2024-03-06T02:50:24;12.33;;;7.97;;
10465;SDS011;5280;42.600;23.556;2024-03-06T02:52:51;12.53;;;9.13;;
10465;SDS011;5280;42.600;23.556;2024-03-06T02:55:21;11.73;;;8.93;;
10465;SDS011;5280;42.600;23.556;2024-03-06T02:57:50;13.60;;;9.27;;
10465;SDS011;5280;42.600;23.556;2024-03-06T03:00:17;12.63;;;8.63;;
10465;SDS011;5280;42.600;23.556;2024-03-06T03:02:44;12.10;;;7.50;;
10465;SDS011;5280;42.600;23.556;2024-03-06T03:05:11;9.30;;;6.97;;
10465;SDS011;5280;42.600;23.556;2024-03-06T03:07:38;11.73;;;7.40;;
10465;SDS011;5280;42.600;23.556;2024-03-06T03:10:06;7.63;;;6.83;;
10465;SDS011;5280;42.600;23.556;2024-03-06T03:12:37;11.37;;;6.83;;
10465;SDS011;5280;42.600;23.556;2024-03-06T03:15:05;10.30;;;7.10;;
10465;SDS011;5280;42.600;23.556;2024-03-06T03:17:33;8.43;;;6.63;;
10465;SDS011;5280;42.600;23.556;2024-03-06T03:20:02;9.70;;;7.50;;
10465;SDS011;5280;42.600;23.556;2024-03-06T03:22:35;8.20;;;6.60;;
10465;SDS011;5280;42.600;23.556;2024-03-06T03:25:07;10.43;;;6.43;;
10465;SDS011;5280;42.600;23.556;2024-03-06T03:27:36;8.33;;;6.60;;
10465;SDS011;5280;42.600;23.556;2024-03-06T03:30:04;8.67;;;6.13;;
10465;SDS011;5280;42.600;23.556;2024-03-06T03:32:34;10.47;;;6.90;;
10465;SDS011;5280;42.600;23.556;2024-03-06T03:35:01;10.90;;;6.87;;
10465;SDS011;5280;42.600;23.556;2024-03-06T03:37:32;10.37;;;6.43;;
10465;SDS011;5280;42.600;23.556;2024-03-06T03:39:59;9.73;;;6.90;;
10465;SDS011;5280;42.600;23.556;2024-03-06T03:42:28;10.30;;;7.30;;
10465;SDS011;5280;42.600;23.556;2024-03-06T03:44:57;9.33;;;6.90;;
10465;SDS011;5280;42.600;23.556;2024-03-06T03:47:24;11.50;;;8.13;;
10465;SDS011;5280;42.600;23.556;2024-03-06T03:49:51;10.10;;;7.90;;
10465;SDS011;5280;42.600;23.556;2024-03-06T03:52:18;10.97;;;7.60;;
10465;SDS011;5280;42.600;23.556;2024-03-06T03:54:50;12.77;;;9.83;;
10465;SDS011;5280;42.600;23.556;2024-03-06T03:57:17;12.13;;;9.33;;
10465;SDS011;5280;42.600;23.556;2024-03-06T03:59:44;16.07;;;10.00;;
10465;SDS011;5280;42.600;23.556;2024-03-06T04:02:12;15.57;;;11.00;;
10465;SDS011;5280;42.600;23.556;2024-03-06T04:04:39;15.47;;;10.40;;
10465;SDS011;5280;42.600;23.556;2024-03-06T04:07:06;16.07;;;11.63;;
10465;SDS011;5280;42.600;23.556;2024-03-06T04:09:33;16.90;;;11.80;;
10465;SDS011;5280;42.600;23.556;2024-03-06T04:12:01;16.97;;;11.13;;
10465;SDS011;5280;42.600;23.556;2024-03-06T04:14:28;18.50;;;12.03;;
10465;SDS011;5280;42.600;23.556;2024-03-06T04:16:56;18.33;;;12.17;;
10465;SDS011;5280;42.600;23.556;2024-03-06T04:19:24;17.50;;;12.00;;
10465;SDS011;5280;42.600;23.556;2024-03-06T04:21:51;16.80;;;12.33;;
10465;SDS011;5280;42.600;23.556;2024-03-06T04:24:18;18.03;;;12.13;;
10465;SDS011;5280;42.600;23.556;2024-03-06T04:26:48;15.90;;;11.50;;
10465;SDS011;5280;42.600;23.556;2024-03-06T04:29:15;14.90;;;11.03;;
10465;SDS011;5280;42.600;23.556;2024-03-06T04:31:42;15.83;;;10.53;;
10465;SDS011;5280;42.600;23.556;2024-03-06T04:34:10;15.53;;;10.77;;
10465;SDS011;5280;42.600;23.556;2024-03-06T04:36:38;12.23;;;8.90;;
10465;SDS011;5280;42.600;23.556;2024-03-06T04:39:05;10.73;;;8.33;;
10465;SDS011;5280;42.600;23.556;2024-03-06T04:41:32;14.77;;;10.10;;
10465;SDS011;5280;42.600;23.556;2024-03-06T04:43:59;18.97;;;12.00;;
10465;SDS011;5280;42.600;23.556;2024-03-06T04:46:26;14.40;;;11.20;;
10465;SDS011;5280;42.600;23.556;2024-03-06T04:48:53;17.03;;;11.67;;
10465;SDS011;5280;42.600;23.556;2024-03-06T04:51:20;26.90;;;16.03;;
10465;SDS011;5280;42.600;23.556;2024-03-06T04:53:49;26.60;;;16.60;;
10465;SDS011;5280;42.600;23.556;2024-03-06T04:56:18;30.67;;;18.13;;
10465;SDS011;5280;42.600;23.556;2024-03-06T04:58:47;35.07;;;18.60;;
10465;SDS011;5280;42.600;23.556;2024-03-06T05:01:14;28.20;;;17.03;;
10465;SDS011;5280;42.600;23.556;2024-03-06T05:03:41;26.60;;;18.70;;
10465;SDS011;5280;42.600;23.556;2024-03-06T05:06:08;22.20;;;16.33;;
10465;SDS011;5280;42.600;23.556;2024-03-06T05:08:35;21.80;;;15.37;;
10465;SDS011;5280;42.600;23.556;2024-03-06T05:11:04;19.17;;;14.30;;
10465;SDS011;5280;42.600;23.556;2024-03-06T05:13:33;19.70;;;13.87;;
10465;SDS011;5280;42.600;23.556;2024-03-06T05:16:03;17.40;;;12.00;;
10465;SDS011;5280;42.600;23.556;2024-03-06T05:18:30;13.87;;;9.40;;
10465;SDS011;5280;42.600;23.556;2024-03-06T05:21:00;13.70;;;9.17;;
10465;SDS011;5280;42.600;23.556;2024-03-06T05:23:27;11.00;;;8.20;;
10465;SDS011;5280;42.600;23.556;2024-03-06T05:25:54;11.70;;;9.90;;
10465;SDS011;5280;42.600;23.556;2024-03-06T05:28:25;16.83;;;11.03;;
10465;SDS011;5280;42.600;23.556;2024-03-06T05:30:52;20.13;;;13.17;;
10465;SDS011;5280;42.600;23.556;2024-03-06T05:33:19;19.67;;;12.90;;
10465;SDS011;5280;42.600;23.556;2024-03-06T05:35:47;26.00;;;15.10;;
10465;SDS011;5280;42.600;23.556;2024-03-06T05:38:14;25.87;;;16.97;;
10465;SDS011;5280;42.600;23.556;2024-03-06T05:40:40;47.70;;;20.43;;
10465;SDS011;5280;42.600;23.556;2024-03-06T05:43:10;39.70;;;20.03;;
10465;SDS011;5280;42.600;23.556;2024-03-06T05:45:42;63.00;;;20.47;;
10465;SDS011;5280;42.600;23.556;2024-03-06T05:48:09;149.30;;;25.83;;
10465;SDS011;5280;42.600;23.556;2024-03-06T05:50:36;48.00;;;20.97;;
10465;SDS011;5280;42.600;23.556;2024-03-06T05:53:04;33.53;;;20.37;;
10465;SDS011;5280;42.600;23.556;2024-03-06T05:55:31;31.57;;;20.43;;
10465;SDS011;5280;42.600;23.556;2024-03-06T05:57:58;33.03;;;20.50;;
10465;SDS011;5280;42.600;23.556;2024-03-06T06:00:27;27.53;;;17.23;;
10465;SDS011;5280;42.600;23.556;2024-03-06T06:02:56;28.43;;;17.90;;
10465;SDS011;5280;42.600;23.556;2024-03-06T06:05:23;26.23;;;17.67;;
10465;SDS011;5280;42.600;23.556;2024-03-06T06:07:56;23.60;;;16.33;;
10465;SDS011;5280;42.600;23.556;2024-03-06T06:10:22;23.17;;;16.40;;
10465;SDS011;5280;42.600;23.556;2024-03-06T06:12:49;25.57;;;16.53;;
10465;SDS011;5280;42.600;23.556;2024-03-06T06:15:17;34.67;;;23.37;;
10465;SDS011;5280;42.600;23.556;2024-03-06T06:17:47;31.83;;;21.23;;
10465;SDS011;5280;42.600;23.556;2024-03-06T06:20:16;30.63;;;20.80;;
10465;SDS011;5280;42.600;23.556;2024-03-06T06:22:43;33.30;;;20.90;;
10465;SDS011;5280;42.600;23.556;2024-03-06T06:25:10;34.30;;;21.17;;
10465;SDS011;5280;42.600;23.556;2024-03-06T06:27:37;33.20;;;20.97;;
10465;SDS011;5280;42.600;23.556;2024-03-06T06:30:05;27.13;;;18.47;;
10465;SDS011;5280;42.600;23.556;2024-03-06T06:32:36;23.97;;;16.80;;
10465;SDS011;5280;42.600;23.556;2024-03-06T06:35:03;22.00;;;15.03;;
10465;SDS011;5280;42.600;23.556;2024-03-06T06:37:35;28.93;;;18.43;;
10465;SDS011;5280;42.600;23.556;2024-03-06T06:40:01;23.17;;;17.00;;
10465;SDS011;5280;42.600;23.556;2024-03-06T06:42:31;25.90;;;16.73;;
10465;SDS011;5280;42.600;23.556;2024-03-06T06:44:58;25.10;;;17.07;;
10465;SDS011;5280;42.600;23.556;2024-03-06T06:47:28;29.30;;;18.17;;
10465;SDS011;5280;42.600;23.556;2024-03-06T06:49:55;26.33;;;17.77;;
10465;SDS011;5280;42.600;23.556;2024-03-06T06:52:22;24.37;;;16.43;;
10465;SDS011;5280;42.600;23.556;2024-03-06T06:54:54;20.13;;;14.70;;
10465;SDS011;5280;42.600;23.556;2024-03-06T06:57:21;22.57;;;16.20;;
10465;SDS011;5280;42.600;23.556;2024-03-06T06:59:48;18.87;;;13.97;;
10465;SDS011;5280;42.600;23.556;2024-03-06T07:02:15;21.43;;;15.77;;
10465;SDS011;5280;42.600;23.556;2024-03-06T07:04:42;22.70;;;17.03;;
10465;SDS011;5280;42.600;23.556;2024-03-06T07:07:13;23.97;;;16.97;;
10465;SDS011;5280;42.600;23.556;2024-03-06T07:09:40;21.60;;;15.77;;
10465;SDS011;5280;42.600;23.556;2024-03-06T07:12:09;23.17;;;15.93;;
10465;SDS011;5280;42.600;23.556;2024-03-06T07:14:36;20.07;;;14.53;;
10465;SDS011;5280;42.600;23.556;2024-03-06T07:17:02;20.53;;;14.93;;
10465;SDS011;5280;42.600;23.556;2024-03-06T07:19:32;22.97;;;15.70;;
10465;SDS011;5280;42.600;23.556;2024-03-06T07:22:00;24.00;;;16.73;;
10465;SDS011;5280;42.600;23.556;2024-03-06T07:24:29;22.97;;;16.77;;
10465;SDS011;5280;42.600;23.556;2024-03-06T07:26:56;24.43;;;15.63;;
10465;SDS011;5280;42.600;23.556;2024-03-06T07:29:41;21.30;;;15.00;;
10465;SDS011;5280;42.600;23.556;2024-03-06T07:32:12;22.73;;;15.40;;
10465;SDS011;5280;42.600;23.556;2024-03-06T07:34:39;18.13;;;13.93;;
10465;SDS011;5280;42.600;23.556;2024-03-06T07:37:06;21.00;;;14.13;;
10465;SDS011;5280;42.600;23.556;2024-03-06T07:39:34;18.47;;;13.00;;
10465;SDS011;5280;42.600;23.556;2024-03-06T07:42:01;20.13;;;14.53;;
10465;SDS011;5280;42.600;23.556;2024-03-06T07:44:29;18.90;;;13.57;;
10465;SDS011;5280;42.600;23.556;2024-03-06T07:46:56;16.40;;;13.50;;
10465;SDS011;5280;42.600;23.556;2024-03-06T07:49:23;16.50;;;12.63;;
10465;SDS011;5280;42.600;23.556;2024-03-06T07:51:50;15.90;;;11.77;;
10465;SDS011;5280;42.600;23.556;2024-03-06T07:54:17;18.20;;;13.40;;
10465;SDS011;5280;42.600;23.556;2024-03-06T07:56:44;17.03;;;13.57;;
10465;SDS011;5280;42.600;23.556;2024-03-06T07:59:11;17.73;;;13.80;;
10465;SDS011;5280;42.600;23.556;2024-03-06T08:01:40;23.20;;;15.90;;
10465;SDS011;5280;42.600;23.556;2024-03-06T08:04:07;21.27;;;14.30;;
10465;SDS011;5280;42.600;23.556;2024-03-06T08:06:34;19.10;;;13.87;;
10465;SDS011;5280;42.600;23.556;2024-03-06T08:09:02;21.97;;;15.53;;
10465;SDS011;5280;42.600;23.556;2024-03-06T08:11:30;23.43;;;16.27;;
10465;SDS011;5280;42.600;23.556;2024-03-06T08:13:58;24.70;;;16.53;;
10465;SDS011;5280;42.600;23.556;2024-03-06T08:19:46;22.37;;;15.47;;
10465;SDS011;5280;42.600;23.556;2024-03-06T08:22:13;21.73;;;16.43;;
10465;SDS011;5280;42.600;23.556;2024-03-06T08:24:40;19.23;;;15.17;;
10465;SDS011;5280;42.600;23.556;2024-03-06T08:27:07;22.33;;;15.57;;
10465;SDS011;5280;42.600;23.556;2024-03-06T08:29:34;21.93;;;15.97;;
10465;SDS011;5280;42.600;23.556;2024-03-06T08:32:01;18.43;;;14.57;;
10465;SDS011;5280;42.600;23.556;2024-03-06T08:34:30;20.43;;;14.67;;
10465;SDS011;5280;42.600;23.556;2024-03-06T08:36:59;21.67;;;14.60;;
10465;SDS011;5280;42.600;23.556;2024-03-06T08:39:26;18.40;;;12.93;;
10465;SDS011;5280;42.600;23.556;2024-03-06T08:41:52;18.03;;;12.67;;
10465;SDS011;5280;42.600;23.556;2024-03-06T08:44:19;16.53;;;12.87;;
10465;SDS011;5280;42.600;23.556;2024-03-06T08:46:46;17.43;;;12.33;;
10465;SDS011;5280;42.600;23.556;2024-03-06T08:49:13;19.53;;;13.53;;
10465;SDS011;5280;42.600;23.556;2024-03-06T08:51:42;17.03;;;13.00;;
10465;SDS011;5280;42.600;23.556;2024-03-06T08:54:09;18.17;;;13.33;;
10465;SDS011;5280;42.600;23.556;2024-03-06T08:56:36;20.23;;;14.40;;
10465;SDS011;5280;42.600;23.556;2024-03-06T08:59:03;22.17;;;14.93;;
10465;SDS011;5280;42.600;23.556;2024-03-06T09:01:30;22.43;;;15.23;;
10465;SDS011;5280;42.600;23.556;2024-03-06T09:03:57;17.90;;;14.03;;
10465;SDS011;5280;42.600;23.556;2024-03-06T09:06:24;18.73;;;14.07;;
10465;SDS011;5280;42.600;23.556;2024-03-06T09:08:53;17.83;;;14.47;;
10465;SDS011;5280;42.600;23.556;2024-03-06T09:11:20;17.17;;;13.80;;
10465;SDS011;5280;42.600;23.556;2024-03-06T09:13:47;18.77;;;14.13;;
10465;SDS011;5280;42.600;23.556;2024-03-06T09:16:14;19.60;;;13.57;;
10465;SDS011;5280;42.600;23.556;2024-03-06T09:18:43;15.67;;;12.87;;
10465;SDS011;5280;42.600;23.556;2024-03-06T09:21:10;16.87;;;12.53;;
10465;SDS011;5280;42.600;23.556;2024-03-06T09:23:37;15.63;;;12.00;;
10465;SDS011;5280;42.600;23.556;2024-03-06T09:26:05;16.13;;;12.57;;
10465;SDS011;5280;42.600;23.556;2024-03-06T09:28:33;20.17;;;12.23;;
10465;SDS011;5280;42.600;23.556;2024-03-06T09:31:00;14.27;;;10.30;;
10465;SDS011;5280;42.600;23.556;2024-03-06T09:33:27;12.63;;;10.63;;
10465;SDS011;5280;42.600;23.556;2024-03-06T09:35:54;14.90;;;10.63;;
10465;SDS011;5280;42.600;23.556;2024-03-06T09:38:22;13.27;;;10.03;;
10465;SDS011;5280;42.600;23.556;2024-03-06T09:40:50;17.67;;;10.57;;
10465;SDS011;5280;42.600;23.556;2024-03-06T09:43:18;16.17;;;11.27;;
10465;SDS011;5280;42.600;23.556;2024-03-06T09:45:45;11.90;;;9.70;;
10465;SDS011;5280;42.600;23.556;2024-03-06T09:48:14;10.93;;;9.70;;
10465;SDS011;5280;42.600;23.556;2024-03-06T09:50:46;9.37;;;8.00;;
10465;SDS011;5280;42.600;23.556;2024-03-06T09:53:16;10.53;;;8.87;;
10465;SDS011;5280;42.600;23.556;2024-03-06T09:55:44;9.07;;;7.63;;
10465;SDS011;5280;42.600;23.556;2024-03-06T09:58:12;11.47;;;8.47;;
10465;SDS011;5280;42.600;23.556;2024-03-06T10:00:41;9.20;;;7.53;;
10465;SDS011;5280;42.600;23.556;2024-03-06T10:03:09;9.80;;;7.47;;
10465;SDS011;5280;42.600;23.556;2024-03-06T10:05:36;10.73;;;7.43;;
10465;SDS011;5280;42.600;23.556;2024-03-06T10:08:04;8.47;;;7.13;;
10465;SDS011;5280;42.600;23.556;2024-03-06T10:10:33;11.40;;;8.30;;
10465;SDS011;5280;42.600;23.556;2024-03-06T10:13:00;13.90;;;9.97;;
10465;SDS011;5280;42.600;23.556;2024-03-06T10:15:27;12.57;;;8.93;;
10465;SDS011;5280;42.600;23.556;2024-03-06T10:20:38;9.27;;;8.03;;
10465;SDS011;5280;42.600;23.556;2024-03-06T10:23:07;10.40;;;7.50;;
10465;SDS011;5280;42.600;23.556;2024-03-06T10:25:35;7.30;;;6.60;;
10465;SDS011;5280;42.600;23.556;2024-03-06T10:28:03;10.63;;;6.83;;
10465;SDS011;5280;42.600;23.556;2024-03-06T10:30:33;10.47;;;7.20;;
10465;SDS011;5280;42.600;23.556;2024-03-06T10:33:02;9.07;;;6.87;;
10465;SDS011;5280;42.600;23.556;2024-03-06T10:35:32;8.90;;;6.27;;
10465;SDS011;5280;42.600;23.556;2024-03-06T10:38:00;10.27;;;5.70;;
10465;SDS011;5280;42.600;23.556;2024-03-06T10:40:31;8.20;;;6.93;;
10465;SDS011;5280;42.600;23.556;2024-03-06T10:43:03;7.60;;;6.37;;
10465;SDS011;5280;42.600;23.556;2024-03-06T10:45:32;7.20;;;5.97;;
10465;SDS011;5280;42.600;23.556;2024-03-06T10:48:07;6.10;;;5.50;;
10465;SDS011;5280;42.600;23.556;2024-03-06T10:50:39;5.90;;;5.00;;
10465;SDS011;5280;42.600;23.556;2024-03-06T10:53:09;6.53;;;5.60;;
10465;SDS011;5280;42.600;23.556;2024-03-06T10:55:36;6.57;;;5.37;;
10465;SDS011;5280;42.600;23.556;2024-03-06T10:58:04;6.50;;;4.57;;
10465;SDS011;5280;42.600;23.556;2024-03-06T11:00:34;8.20;;;5.10;;
10465;SDS011;5280;42.600;23.556;2024-03-06T11:03:04;8.60;;;5.57;;
10465;SDS011;5280;42.600;23.556;2024-03-06T11:05:33;8.77;;;5.30;;
10465;SDS011;5280;42.600;23.556;2024-03-06T11:08:03;8.57;;;5.37;;
10465;SDS011;5280;42.600;23.556;2024-03-06T11:10:34;7.57;;;5.37;;
10465;SDS011;5280;42.600;23.556;2024-03-06T11:13:04;6.40;;;4.87;;
10465;SDS011;5280;42.600;23.556;2024-03-06T11:15:47;7.30;;;5.00;;
10465;SDS011;5280;42.600;23.556;2024-03-06T11:21:28;7.37;;;4.63;;
10465;SDS011;5280;42.600;23.556;2024-03-06T11:26:57;7.37;;;6.20;;
10465;SDS011;5280;42.600;23.556;2024-03-06T11:29:27;5.43;;;4.80;;
10465;SDS011;5280;42.600;23.556;2024-03-06T11:32:05;7.90;;;4.93;;
10465;SDS011;5280;42.600;23.556;2024-03-06T11:34:35;5.63;;;4.80;;
10465;SDS011;5280;42.600;23.556;2024-03-06T11:37:03;7.17;;;4.67;;
10465;SDS011;5280;42.600;23.556;2024-03-06T11:39:37;5.10;;;4.60;;
10465;SDS011;5280;42.600;23.556;2024-03-06T11:42:06;5.00;;;4.47;;
10465;SDS011;5280;42.600;23.556;2024-03-06T11:44:34;5.90;;;4.90;;
10465;SDS011;5280;42.600;23.556;2024-03-06T11:47:03;5.27;;;4.27;;
10465;SDS011;5280;42.600;23.556;2024-03-06T11:49:32;7.43;;;4.63;;
10465;SDS011;5280;42.600;23.556;2024-03-06T11:52:00;6.00;;;4.10;;
10465;SDS011;5280;42.600;23.556;2024-03-06T11:54:29;4.43;;;3.70;;
10465;SDS011;5280;42.600;23.556;2024-03-06T11:57:00;7.07;;;3.60;;
10465;SDS011;5280;42.600;23.556;2024-03-06T11:59:31;5.20;;;3.70;;
10465;SDS011;5280;42.600;23.556;2024-03-06T12:02:00;5.50;;;3.73;;
10465;SDS011;5280;42.600;23.556;2024-03-06T12:04:29;5.17;;;4.30;;
10465;SDS011;5280;42.600;23.556;2024-03-06T12:06:58;5.10;;;4.10;;
10465;SDS011;5280;42.600;23.556;2024-03-06T12:09:30;4.67;;;4.20;;
10465;SDS011;5280;42.600;23.556;2024-03-06T12:11:57;6.83;;;4.30;;
10465;SDS011;5280;42.600;23.556;2024-03-06T12:14:25;3.83;;;3.40;;
10465;SDS011;5280;42.600;23.556;2024-03-06T12:16:56;6.53;;;4.10;;
10465;SDS011;5280;42.600;23.556;2024-03-06T12:19:25;5.30;;;3.90;;
10465;SDS011;5280;42.600;23.556;2024-03-06T12:21:53;4.77;;;3.97;;
10465;SDS011;5280;42.600;23.556;2024-03-06T12:24:20;7.47;;;3.77;;
10465;SDS011;5280;42.600;23.556;2024-03-06T12:26:57;6.77;;;4.00;;
10465;SDS011;5280;42.600;23.556;2024-03-06T12:29:27;5.23;;;3.87;;
10465;SDS011;5280;42.600;23.556;2024-03-06T12:31:55;6.80;;;4.20;;
10465;SDS011;5280;42.600;23.556;2024-03-06T12:34:22;4.90;;;4.03;;
10465;SDS011;5280;42.600;23.556;2024-03-06T12:36:49;4.50;;;3.90;;
10465;SDS011;5280;42.600;23.556;2024-03-06T12:39:17;4.33;;;3.80;;
10465;SDS011;5280;42.600;23.556;2024-03-06T12:41:48;4.73;;;4.20;;
10465;SDS011;5280;42.600;23.556;2024-03-06T12:44:15;4.67;;;4.23;;
10465;SDS011;5280;42.600;23.556;2024-03-06T12:46:44;6.43;;;4.10;;
10465;SDS011;5280;42.600;23.556;2024-03-06T12:49:11;6.03;;;3.90;;
10465;SDS011;5280;42.600;23.556;2024-03-06T12:51:38;5.60;;;4.47;;
10465;SDS011;5280;42.600;23.556;2024-03-06T12:54:06;5.07;;;4.10;;
10465;SDS011;5280;42.600;23.556;2024-03-06T12:56:34;6.90;;;3.93;;
10465;SDS011;5280;42.600;23.556;2024-03-06T12:59:02;5.80;;;4.17;;
10465;SDS011;5280;42.600;23.556;2024-03-06T13:01:30;5.57;;;4.00;;
10465;SDS011;5280;42.600;23.556;2024-03-06T13:03:58;5.27;;;3.70;;
10465;SDS011;5280;42.600;23.556;2024-03-06T13:06:26;5.73;;;3.87;;
10465;SDS011;5280;42.600;23.556;2024-03-06T13:08:54;5.23;;;3.90;;
10465;SDS011;5280;42.600;23.556;2024-03-06T13:11:21;8.10;;;5.30;;
10465;SDS011;5280;42.600;23.556;2024-03-06T13:13:48;7.80;;;5.83;;
10465;SDS011;5280;42.600;23.556;2024-03-06T13:16:16;8.17;;;5.07;;
10465;SDS011;5280;42.600;23.556;2024-03-06T13:18:43;7.67;;;5.03;;
10465;SDS011;5280;42.600;23.556;2024-03-06T13:21:12;6.87;;;5.23;;
10465;SDS011;5280;42.600;23.556;2024-03-06T13:23:39;5.53;;;5.03;;
10465;SDS011;5280;42.600;23.556;2024-03-06T13:26:06;6.53;;;4.70;;
10465;SDS011;5280;42.600;23.556;2024-03-06T13:28:32;6.23;;;5.63;;
10465;SDS011;5280;42.600;23.556;2024-03-06T13:31:00;6.80;;;5.43;;
10465;SDS011;5280;42.600;23.556;2024-03-06T13:33:27;7.50;;;5.20;;
10465;SDS011;5280;42.600;23.556;2024-03-06T13:35:54;6.80;;;5.80;;
10465;SDS011;5280;42.600;23.556;2024-03-06T13:38:22;6.13;;;5.50;;
10465;SDS011;5280;42.600;23.556;2024-03-06T13:40:49;5.63;;;4.97;;
10465;SDS011;5280;42.600;23.556;2024-03-06T13:43:16;6.87;;;5.10;;
10465;SDS011;5280;42.600;23.556;2024-03-06T13:45:48;5.10;;;4.57;;
10465;SDS011;5280;42.600;23.556;2024-03-06T13:48:16;6.03;;;4.10;;
10465;SDS011;5280;42.600;23.556;2024-03-06T13:50:43;4.60;;;3.77;;
10465;SDS011;5280;42.600;23.556;2024-03-06T13:53:10;4.03;;;3.63;;
10465;SDS011;5280;42.600;23.556;2024-03-06T13:55:39;5.37;;;4.13;;
10465;SDS011;5280;42.600;23.556;2024-03-06T13:58:07;8.27;;;5.03;;
10465;SDS011;5280;42.600;23.556;2024-03-06T14:00:34;4.63;;;4.23;;
10465;SDS011;5280;42.600;23.556;2024-03-06T14:03:01;6.30;;;4.47;;
10465;SDS011;5280;42.600;23.556;2024-03-06T14:05:28;4.80;;;4.30;;
10465;SDS011;5280;42.600;23.556;2024-03-06T14:07:56;4.40;;;4.00;;
10465;SDS011;5280;42.600;23.556;2024-03-06T14:10:22;5.57;;;4.27;;
10465;SDS011;5280;42.600;23.556;2024-03-06T14:12:53;4.70;;;3.83;;
10465;SDS011;5280;42.600;23.556;2024-03-06T14:15:21;5.87;;;4.20;;
10465;SDS011;5280;42.600;23.556;2024-03-06T14:17:49;5.53;;;3.87;;
10465;SDS011;5280;42.600;23.556;2024-03-06T14:20:16;4.20;;;3.50;;
10465;SDS011;5280;42.600;23.556;2024-03-06T14:22:43;5.90;;;3.27;;
10465;SDS011;5280;42.600;23.556;2024-03-06T14:25:10;4.40;;;3.90;;
10465;SDS011;5280;42.600;23.556;2024-03-06T14:27:37;4.17;;;3.23;;
10465;SDS011;5280;42.600;23.556;2024-03-06T14:30:06;4.37;;;3.50;;
10465;SDS011;5280;42.600;23.556;2024-03-06T14:32:34;4.37;;;3.97;;
10465;SDS011;5280;42.600;23.556;2024-03-06T14:35:04;4.27;;;3.43;;
10465;SDS011;5280;42.600;23.556;2024-03-06T14:37:32;4.43;;;4.03;;
10465;SDS011;5280;42.600;23.556;2024-03-06T14:39:59;5.00;;;3.70;;
10465;SDS011;5280;42.600;23.556;2024-03-06T14:42:26;4.60;;;3.30;;
10465;SDS011;5280;42.600;23.556;2024-03-06T14:44:53;5.67;;;3.53;;
10465;SDS011;5280;42.600;23.556;2024-03-06T14:47:22;4.10;;;3.70;;